Terminal Aerodrome Forecast
Issued by NWS Jackson, MS

Home | Current Version | Previous Version | Text Only | Print | Product List | Glossary On
Versions: 1 2 3 4 5 6 7 8 9 10 11 12 13 14 15 16
042
FTUS44 KJAN 240520
TAFJAN
TAF
KJAN 240520Z 2406/2506 16011KT P6SM FEW015 SCT250
     FM240700 16012G20KT P6SM BKN015 BKN250
     FM241600 16017G27KT P6SM SCT015 BKN025=

USA.gov is the U.S. government's official web portal to all federal, state and local government web resources and services.